Time,TemperatureF,DewpointF,PressureIn,WindDirection,WindDirectionDegrees,WindSpeedMPH,WindSpeedGustMPH,Humidity,HourlyPrecipIn,Conditions,Clouds,dailyrainin,SoftwareType,DateUTC
2014-01-09 00:02:00,23.5,15.5,30.15,SW,227,8.0,11.0,71,0.00,,---,0.00,VWS V14.01,2014-01-09 07:02:00,
2014-01-09 00:07:00,23.6,15.6,30.15,SW,228,7.0,11.0,71,0.00,,---,0.00,VWS V14.01,2014-01-09 07:07:00,
2014-01-09 00:17:00,24.0,15.6,30.15,SW,227,9.0,10.0,70,0.00,,---,0.00,VWS V14.01,2014-01-09 07:17:00,
2014-01-09 00:27:00,24.4,15.7,30.14,SW,227,5.0,10.0,69,0.00,,---,0.00,VWS V14.01,2014-01-09 07:27:00,
2014-01-09 00:32:00,24.6,15.9,30.14,SW,229,7.0,9.0,69,0.00,,---,0.00,VWS V14.01,2014-01-09 07:32:00,
2014-01-09 00:37:00,23.8,15.1,30.14,SW,229,5.0,8.0,69,0.00,,---,0.00,VWS V14.01,2014-01-09 07:37:00,
2014-01-09 00:47:00,22.9,14.9,30.14,SW,229,6.0,8.0,71,0.00,,---,0.00,VWS V14.01,2014-01-09 07:47:00,
2014-01-09 00:52:00,22.7,15.1,30.14,SW,230,7.0,9.0,72,0.00,,---,0.00,VWS V14.01,2014-01-09 07:52:00,
2014-01-09 00:57:00,22.7,15.1,30.14,SW,230,5.0,8.0,72,0.00,,---,0.00,VWS V14.01,2014-01-09 07:57:00,
2014-01-09 01:02:00,21.9,14.3,30.13,SW,231,6.0,8.0,72,0.00,,---,0.00,VWS V14.01,2014-01-09 08:02:00,
2014-01-09 01:12:00,21.6,14.6,30.13,SW,231,4.0,7.0,74,0.00,,---,0.00,VWS V14.01,2014-01-09 08:12:00,
2014-01-09 01:22:00,22.8,15.1,30.13,SW,231,6.0,7.0,72,0.00,,---,0.00,VWS V14.01,2014-01-09 08:22:00,
2014-01-09 01:27:00,23.0,15.0,30.14,SW,231,2.0,7.0,71,0.00,,---,0.00,VWS V14.01,2014-01-09 08:27:00,
2014-01-09 01:32:00,22.9,14.9,30.13,SW,231,8.0,8.0,71,0.00,,---,0.00,VWS V14.01,2014-01-09 08:32:00,
2014-01-09 01:37:00,23.1,15.1,30.13,SW,234,4.0,9.0,71,0.00,,---,0.00,VWS V14.01,2014-01-09 08:37:00,
2014-01-09 01:47:00,22.9,14.6,30.13,SW,234,6.0,7.0,70,0.00,,---,0.00,VWS V14.01,2014-01-09 08:47:00,
2014-01-09 01:52:00,22.6,14.3,30.13,SW,235,7.0,8.0,70,0.00,,---,0.00,VWS V14.01,2014-01-09 08:52:00,
2014-01-09 02:02:00,22.7,14.7,30.13,WSW,238,6.0,10.0,71,0.00,,---,0.00,VWS V14.01,2014-01-09 09:02:00,
2014-01-09 02:07:00,22.5,14.5,30.14,WSW,240,8.0,8.0,71,0.00,,---,0.00,VWS V14.01,2014-01-09 09:07:00,
2014-01-09 02:12:00,22.8,14.8,30.13,WSW,246,9.0,9.0,71,0.00,,---,0.00,VWS V14.01,2014-01-09 09:12:00,
2014-01-09 02:22:00,24.0,15.0,30.13,West,261,7.0,10.0,68,0.00,,---,0.00,VWS V14.01,2014-01-09 09:22:00,
2014-01-09 02:32:00,24.0,14.6,30.13,West,263,8.0,9.0,67,0.00,,---,0.00,VWS V14.01,2014-01-09 09:32:00,
2014-01-09 02:37:00,24.1,15.1,30.13,West,263,7.0,9.0,68,0.00,,---,0.00,VWS V14.01,2014-01-09 09:37:00,
2014-01-09 02:47:00,24.3,14.9,30.13,West,265,5.0,10.0,67,0.00,,---,0.00,VWS V14.01,2014-01-09 09:47:00,
2014-01-09 02:52:00,24.4,15.0,30.13,West,265,6.0,9.0,67,0.00,,---,0.00,VWS V14.01,2014-01-09 09:52:00,
2014-01-09 03:02:00,24.5,14.8,30.12,West,265,4.0,8.0,66,0.00,,---,0.00,VWS V14.01,2014-01-09 10:02:00,
2014-01-09 03:12:00,23.4,14.1,30.12,West,265,4.0,6.0,67,0.00,,---,0.00,VWS V14.01,2014-01-09 10:12:00,
2014-01-09 03:17:00,23.2,13.9,30.12,West,265,3.0,6.0,67,0.00,,---,0.00,VWS V14.01,2014-01-09 10:17:00,
2014-01-09 03:22:00,23.2,13.9,30.12,West,265,2.0,5.0,67,0.00,,---,0.00,VWS V14.01,2014-01-09 10:22:00,
2014-01-09 03:27:00,22.9,13.6,30.12,West,265,2.0,4.0,67,0.00,,---,0.00,VWS V14.01,2014-01-09 10:27:00,
2014-01-09 03:32:00,22.6,13.3,30.11,West,265,2.0,3.0,67,0.00,,---,0.00,VWS V14.01,2014-01-09 10:32:00,
2014-01-09 03:37:00,22.8,13.8,30.11,West,265,1.0,3.0,68,0.00,,---,0.00,VWS V14.01,2014-01-09 10:37:00,
2014-01-09 03:47:00,23.8,14.1,30.11,West,265,2.0,5.0,66,0.00,,---,0.00,VWS V14.01,2014-01-09 10:47:00,
2014-01-09 03:52:00,23.6,13.9,30.11,West,265,1.0,4.0,66,0.00,,---,0.00,VWS V14.01,2014-01-09 10:52:00,
2014-01-09 03:57:00,23.6,13.9,30.11,West,265,1.0,2.0,66,0.00,,---,0.00,VWS V14.01,2014-01-09 10:57:00,
2014-01-09 04:02:00,23.5,13.8,30.10,West,265,3.0,3.0,66,0.00,,---,0.00,VWS V14.01,2014-01-09 11:02:00,
2014-01-09 04:07:00,23.5,13.8,30.10,West,265,3.0,3.0,66,0.00,,---,0.00,VWS V14.01,2014-01-09 11:07:00,
2014-01-09 04:17:00,23.6,13.9,30.10,West,265,4.0,5.0,66,0.00,,---,0.00,VWS V14.01,2014-01-09 11:17:00,
2014-01-09 04:27:00,23.0,13.0,30.09,West,265,4.0,6.0,65,0.00,,---,0.00,VWS V14.01,2014-01-09 11:27:00,
2014-01-09 04:32:00,22.8,13.2,30.09,West,265,4.0,7.0,66,0.00,,---,0.00,VWS V14.01,2014-01-09 11:32:00,
2014-01-09 04:37:00,23.4,13.4,30.09,West,265,3.0,5.0,65,0.00,,---,0.00,VWS V14.01,2014-01-09 11:37:00,
2014-01-09 04:47:00,23.5,13.5,30.09,West,265,2.0,3.0,65,0.00,,---,0.00,VWS V14.01,2014-01-09 11:47:00,
2014-01-09 04:57:00,23.4,13.0,30.08,West,265,4.0,5.0,64,0.00,,---,0.00,VWS V14.01,2014-01-09 11:57:00,
2014-01-09 05:02:00,23.8,13.4,30.08,West,265,3.0,4.0,64,0.00,,---,0.00,VWS V14.01,2014-01-09 12:02:00,
2014-01-09 05:12:00,23.7,13.3,30.08,West,265,5.0,6.0,64,0.00,,---,0.00,VWS V14.01,2014-01-09 12:12:00,
2014-01-09 05:22:00,24.0,13.2,30.08,West,265,5.0,6.0,63,0.00,,---,0.00,VWS V14.01,2014-01-09 12:22:00,
2014-01-09 05:27:00,24.0,13.2,30.08,West,265,3.0,6.0,63,0.00,,---,0.00,VWS V14.01,2014-01-09 12:27:00,
2014-01-09 05:32:00,25.2,14.0,30.07,West,265,4.0,4.0,62,0.00,,---,0.00,VWS V14.01,2014-01-09 12:32:00,
2014-01-09 05:37:00,25.9,13.9,30.07,West,265,2.0,4.0,60,0.00,,---,0.00,VWS V14.01,2014-01-09 12:37:00,
2014-01-09 05:47:00,26.2,13.4,30.07,West,265,3.0,5.0,58,0.00,,---,0.00,VWS V14.01,2014-01-09 12:47:00,
2014-01-09 05:52:00,26.5,13.7,30.07,West,265,5.0,5.0,58,0.00,,---,0.00,VWS V14.01,2014-01-09 12:52:00,
2014-01-09 06:02:00,25.7,12.6,30.07,West,265,4.0,7.0,57,0.00,,---,0.00,VWS V14.01,2014-01-09 13:02:00,
2014-01-09 06:07:00,25.4,12.7,30.07,West,265,6.0,7.0,58,0.00,,---,0.00,VWS V14.01,2014-01-09 13:07:00,
2014-01-09 06:12:00,24.3,11.3,30.07,West,265,2.0,6.0,57,0.00,,---,0.00,VWS V14.01,2014-01-09 13:12:00,
2014-01-09 06:17:00,22.9,11.1,30.07,West,265,2.0,3.0,60,0.00,,---,0.00,VWS V14.01,2014-01-09 13:17:00,
2014-01-09 06:27:00,23.6,12.1,30.07,West,265,1.0,4.0,61,0.00,,---,0.00,VWS V14.01,2014-01-09 13:27:00,
2014-01-09 06:37:00,23.1,11.7,30.07,West,265,2.0,3.0,61,0.00,,---,0.00,VWS V14.01,2014-01-09 13:37:00,
2014-01-09 06:42:00,22.8,11.8,30.07,West,265,0.0,3.0,62,0.00,,---,0.00,VWS V14.01,2014-01-09 13:42:00,
2014-01-09 06:47:00,22.7,12.0,30.07,West,265,2.0,2.0,63,0.00,,---,0.00,VWS V14.01,2014-01-09 13:47:00,
2014-01-09 06:52:00,22.7,12.0,30.07,West,265,3.0,3.0,63,0.00,,---,0.00,VWS V14.01,2014-01-09 13:52:00,
2014-01-09 07:02:00,23.3,11.9,30.07,West,265,5.0,7.0,61,0.00,,---,0.00,VWS V14.01,2014-01-09 14:02:00,
2014-01-09 07:12:00,23.2,11.4,30.07,West,265,6.0,7.0,60,0.00,,---,0.00,VWS V14.01,2014-01-09 14:12:00,
2014-01-09 07:17:00,23.5,11.3,30.07,West,265,6.0,7.0,59,0.00,,---,0.00,VWS V14.01,2014-01-09 14:17:00,
2014-01-09 07:22:00,23.3,11.1,30.07,West,265,5.0,8.0,59,0.00,,---,0.00,VWS V14.01,2014-01-09 14:22:00,
2014-01-09 07:27:00,23.3,11.1,30.07,West,265,4.0,8.0,59,0.00,,---,0.00,VWS V14.01,2014-01-09 14:27:00,
2014-01-09 07:37:00,23.8,11.2,30.07,West,265,3.0,3.0,58,0.00,,---,0.00,VWS V14.01,2014-01-09 14:37:00,
2014-01-09 07:42:00,23.8,10.8,30.07,West,265,3.0,4.0,57,0.00,,---,0.00,VWS V14.01,2014-01-09 14:42:00,
2014-01-09 07:52:00,24.4,11.4,30.07,West,265,3.0,6.0,57,0.00,,---,0.00,VWS V14.01,2014-01-09 14:52:00,
2014-01-09 07:57:00,24.5,11.1,30.07,West,265,5.0,5.0,56,0.00,,---,0.00,VWS V14.01,2014-01-09 14:57:00,
2014-01-09 08:07:00,25.1,11.6,30.07,West,265,7.0,7.0,56,0.00,,---,0.00,VWS V14.01,2014-01-09 15:07:00,
2014-01-09 08:17:00,26.1,12.2,30.07,West,263,6.0,8.0,55,0.00,,---,0.00,VWS V14.01,2014-01-09 15:17:00,
2014-01-09 08:22:00,26.8,12.4,30.06,West,262,7.0,8.0,54,0.00,,---,0.00,VWS V14.01,2014-01-09 15:22:00,
2014-01-09 08:32:00,28.1,12.8,30.07,West,259,5.0,8.0,52,0.00,,---,0.00,VWS V14.01,2014-01-09 15:32:00,
2014-01-09 08:37:00,28.3,12.9,30.06,West,259,3.0,6.0,52,0.00,,---,0.00,VWS V14.01,2014-01-09 15:37:00,
2014-01-09 08:47:00,29.3,13.0,30.06,West,259,5.0,8.0,50,0.00,,---,0.00,VWS V14.01,2014-01-09 15:47:00,
2014-01-09 08:52:00,29.7,12.9,30.05,WSW,258,7.0,9.0,49,0.00,,---,0.00,VWS V14.01,2014-01-09 15:52:00,
2014-01-09 09:02:00,30.7,13.4,30.05,WSW,257,6.0,8.0,48,0.00,,---,0.00,VWS V14.01,2014-01-09 16:02:00,
2014-01-09 09:07:00,31.1,13.2,30.05,WSW,256,7.0,8.0,47,0.00,,---,0.00,VWS V14.01,2014-01-09 16:07:00,
2014-01-09 09:17:00,31.9,13.0,30.05,WSW,243,7.0,11.0,45,0.00,,---,0.00,VWS V14.01,2014-01-09 16:17:00,
2014-01-09 09:22:00,32.1,13.2,30.05,WSW,248,7.0,11.0,45,0.00,,---,0.00,VWS V14.01,2014-01-09 16:22:00,
2014-01-09 09:27:00,32.4,13.4,30.05,WSW,248,6.0,11.0,45,0.00,,---,0.00,VWS V14.01,2014-01-09 16:27:00,
2014-01-09 09:32:00,32.6,13.6,30.05,WSW,252,5.0,11.0,45,0.00,,---,0.00,VWS V14.01,2014-01-09 16:32:00,
2014-01-09 10:07:00,34.6,14.4,30.04,West,278,8.0,12.0,43,0.00,,---,0.00,VWS V14.01,2014-01-09 17:07:00,
2014-01-09 10:22:00,34.9,14.7,30.04,WNW,290,11.0,12.0,43,0.00,,---,0.00,VWS V14.01,2014-01-09 17:22:00,
2014-01-09 10:27:00,34.9,13.6,30.04,WNW,287,8.0,13.0,41,0.00,,---,0.00,VWS V14.01,2014-01-09 17:27:00,
2014-01-09 10:32:00,35.2,15.0,30.03,WNW,286,9.0,10.0,43,0.00,,---,0.00,VWS V14.01,2014-01-09 17:32:00,
2014-01-09 10:37:00,35.3,12.8,30.03,West,279,9.0,13.0,39,0.00,,---,0.00,VWS V14.01,2014-01-09 17:37:00,
2014-01-09 10:57:00,35.6,13.7,30.03,WNW,283,12.0,14.0,40,0.00,,---,0.00,VWS V14.01,2014-01-09 17:57:00,
2014-01-09 11:02:00,35.6,13.7,30.02,WNW,283,11.0,14.0,40,0.00,,---,0.00,VWS V14.01,2014-01-09 18:02:00,
2014-01-09 11:12:00,35.8,14.4,30.01,WNW,286,11.0,13.0,41,0.00,,---,0.00,VWS V14.01,2014-01-09 18:12:00,
2014-01-09 11:22:00,36.0,14.0,30.01,WNW,287,12.0,14.0,40,0.00,,---,0.00,VWS V14.01,2014-01-09 18:22:00,
2014-01-09 11:37:00,36.4,13.8,29.99,WNW,302,10.0,16.0,39,0.00,,---,0.00,VWS V14.01,2014-01-09 18:37:00,
2014-01-09 11:42:00,36.2,12.4,29.99,WNW,302,12.0,17.0,37,0.00,,---,0.00,VWS V14.01,2014-01-09 18:42:00,
2014-01-09 11:47:00,36.3,13.1,29.98,WNW,294,11.0,15.0,38,0.00,,---,0.00,VWS V14.01,2014-01-09 18:47:00,
2014-01-09 11:57:00,36.7,13.5,29.98,WNW,292,11.0,16.0,38,0.00,,---,0.00,VWS V14.01,2014-01-09 18:57:00,
2014-01-09 12:02:00,36.5,14.5,29.97,NW,306,10.0,18.0,40,0.00,,---,0.00,VWS V14.01,2014-01-09 19:02:00,
2014-01-09 12:07:00,36.5,12.1,29.96,WNW,292,19.0,19.0,36,0.00,,---,0.00,VWS V14.01,2014-01-09 19:07:00,
2014-01-09 12:22:00,37.1,13.2,29.95,WNW,294,12.0,14.0,37,0.00,,---,0.00,VWS V14.01,2014-01-09 19:22:00,
2014-01-09 12:47:00,38.1,12.9,29.93,WNW,294,9.0,14.0,35,0.00,,---,0.00,VWS V14.01,2014-01-09 19:47:00,
2014-01-09 12:52:00,38.1,11.6,29.93,WNW,290,14.0,15.0,33,0.00,,---,0.00,VWS V14.01,2014-01-09 19:52:00,
2014-01-09 13:13:00,38.4,11.1,29.93,WNW,301,12.0,16.0,32,0.00,,---,0.00,VWS V14.01,2014-01-09 20:13:00,
2014-01-09 13:32:00,38.2,12.3,29.91,WNW,288,12.0,17.0,34,0.00,,---,0.00,VWS V14.01,2014-01-09 20:32:00,
2014-01-09 14:02:00,38.6,12.7,29.91,West,275,12.0,13.0,34,0.00,,---,0.00,VWS V14.01,2014-01-09 21:02:00,
2014-01-09 14:08:00,38.8,12.2,29.91,West,275,10.0,15.0,33,0.00,,---,0.00,VWS V14.01,2014-01-09 21:08:00,
2014-01-09 14:22:00,39.6,9.2,29.91,WNW,285,6.0,8.0,28,0.00,,---,0.00,VWS V14.01,2014-01-09 21:22:00,
2014-01-09 14:37:00,40.1,13.3,29.90,West,271,10.0,10.0,33,0.00,,---,0.00,VWS V14.01,2014-01-09 21:37:00,
2014-01-09 14:52:00,39.9,12.4,29.89,West,281,8.0,8.0,32,0.00,,---,0.00,VWS V14.01,2014-01-09 21:52:00,
2014-01-09 15:02:00,38.9,12.3,29.89,WNW,285,10.0,16.0,33,0.00,,---,0.00,VWS V14.01,2014-01-09 22:02:00,
2014-01-09 15:13:00,38.7,13.4,29.89,WNW,292,10.0,15.0,35,0.00,,---,0.00,VWS V14.01,2014-01-09 22:13:00,
2014-01-09 15:42:00,38.9,13.6,29.89,WNW,297,7.0,11.0,35,0.00,,---,0.00,VWS V14.01,2014-01-09 22:42:00,
2014-01-09 15:52:00,38.6,15.2,29.89,West,281,7.0,9.0,38,0.00,,---,0.00,VWS V14.01,2014-01-09 22:52:00,
2014-01-09 16:17:00,37.3,14.0,29.89,West,277,5.0,8.0,38,0.00,,---,0.00,VWS V14.01,2014-01-09 23:17:00,
2014-01-09 16:37:00,35.3,12.8,29.89,WNW,286,7.0,15.0,39,0.00,,---,0.00,VWS V14.01,2014-01-09 23:37:00,
2014-01-09 17:22:00,31.5,13.6,29.89,West,277,8.0,11.0,47,0.00,,---,0.00,VWS V14.01,2014-01-10 00:22:00,
2014-01-09 17:27:00,31.2,13.3,29.89,West,277,5.0,9.0,47,0.00,,---,0.00,VWS V14.01,2014-01-10 00:27:00,
2014-01-09 17:37:00,30.3,13.4,29.89,West,277,4.0,6.0,49,0.00,,---,0.00,VWS V14.01,2014-01-10 00:37:00,
2014-01-09 17:42:00,30.0,13.2,29.89,West,277,7.0,9.0,49,0.00,,---,0.00,VWS V14.01,2014-01-10 00:42:00,
2014-01-09 17:47:00,29.7,12.9,29.89,West,277,7.0,8.0,49,0.00,,---,0.00,VWS V14.01,2014-01-10 00:47:00,
2014-01-09 17:57:00,28.8,12.1,29.89,West,277,3.0,7.0,49,0.00,,---,0.00,VWS V14.01,2014-01-10 00:57:00,
2014-01-09 18:07:00,28.8,12.1,29.89,West,277,3.0,4.0,49,0.00,,---,0.00,VWS V14.01,2014-01-10 01:07:00,
2014-01-09 18:17:00,29.0,11.8,29.88,West,277,0.0,3.0,48,0.00,,---,0.00,VWS V14.01,2014-01-10 01:17:00,
2014-01-09 18:27:00,29.7,11.9,29.88,West,277,0.0,1.0,47,0.00,,---,0.00,VWS V14.01,2014-01-10 01:27:00,
2014-01-09 18:37:00,29.2,11.5,29.88,West,277,1.0,2.0,47,0.00,,---,0.00,VWS V14.01,2014-01-10 01:37:00,
2014-01-09 18:42:00,29.1,10.9,29.88,West,277,2.0,3.0,46,0.00,,---,0.00,VWS V14.01,2014-01-10 01:42:00,
2014-01-09 18:52:00,29.0,10.8,29.88,West,277,0.0,1.0,46,0.00,,---,0.00,VWS V14.01,2014-01-10 01:52:00,
2014-01-09 19:02:00,29.2,11.0,29.88,West,277,0.0,2.0,46,0.00,,---,0.00,VWS V14.01,2014-01-10 02:02:00,
2014-01-09 19:07:00,29.6,10.9,29.87,West,277,0.0,1.0,45,0.00,,---,0.00,VWS V14.01,2014-01-10 02:07:00,
2014-01-09 19:17:00,30.4,10.6,29.87,West,277,0.0,3.0,43,0.00,,---,0.00,VWS V14.01,2014-01-10 02:17:00,
2014-01-09 19:22:00,30.9,10.5,29.87,West,277,1.0,3.0,42,0.00,,---,0.00,VWS V14.01,2014-01-10 02:22:00,
2014-01-09 19:32:00,31.0,10.6,29.87,West,277,2.0,3.0,42,0.00,,---,0.00,VWS V14.01,2014-01-10 02:32:00,
2014-01-09 19:37:00,30.7,10.9,29.87,West,277,3.0,3.0,43,0.00,,---,0.00,VWS V14.01,2014-01-10 02:37:00,
2014-01-09 19:47:00,29.7,11.0,29.86,West,277,3.0,4.0,45,0.00,,---,0.00,VWS V14.01,2014-01-10 02:47:00,
2014-01-09 19:52:00,28.3,11.1,29.86,West,277,1.0,4.0,48,0.00,,---,0.00,VWS V14.01,2014-01-10 02:52:00,
2014-01-09 19:57:00,27.6,10.9,29.86,West,277,7.0,7.0,49,0.00,,---,0.00,VWS V14.01,2014-01-10 02:57:00,
2014-01-09 20:02:00,28.1,11.4,29.86,West,277,4.0,7.0,49,0.00,,---,0.00,VWS V14.01,2014-01-10 03:02:00,
2014-01-09 20:12:00,28.9,11.7,29.85,West,277,3.0,6.0,48,0.00,,---,0.00,VWS V14.01,2014-01-10 03:12:00,
2014-01-09 20:22:00,28.8,12.1,29.85,West,277,2.0,5.0,49,0.00,,---,0.00,VWS V14.01,2014-01-10 03:22:00,
2014-01-09 20:32:00,29.4,12.1,29.85,West,277,0.0,4.0,48,0.00,,---,0.00,VWS V14.01,2014-01-10 03:32:00,
2014-01-09 20:37:00,29.8,12.0,29.85,West,277,2.0,5.0,47,0.00,,---,0.00,VWS V14.01,2014-01-10 03:37:00,
2014-01-09 20:42:00,30.2,12.4,29.84,West,277,4.0,7.0,47,0.00,,---,0.00,VWS V14.01,2014-01-10 03:42:00,
2014-01-09 20:52:00,30.7,12.9,29.84,West,277,0.0,6.0,47,0.00,,---,0.00,VWS V14.01,2014-01-10 03:52:00,
2014-01-09 21:02:00,30.4,13.1,29.84,West,277,0.0,6.0,48,0.00,,---,0.00,VWS V14.01,2014-01-10 04:02:00,
2014-01-09 21:12:00,30.1,12.3,29.84,West,277,3.0,4.0,47,0.00,,---,0.00,VWS V14.01,2014-01-10 04:12:00,
2014-01-09 21:22:00,29.9,12.6,29.83,West,277,0.0,0.0,48,0.00,,---,0.00,VWS V14.01,2014-01-10 04:22:00,
2014-01-09 21:27:00,29.7,12.4,29.84,West,277,0.0,0.0,48,0.00,,---,0.00,VWS V14.01,2014-01-10 04:27:00,
2014-01-09 21:37:00,30.1,12.8,29.83,West,277,0.0,4.0,48,0.00,,---,0.00,VWS V14.01,2014-01-10 04:37:00,
2014-01-09 21:47:00,30.1,13.3,29.83,West,275,6.0,7.0,49,0.00,,---,0.00,VWS V14.01,2014-01-10 04:47:00,
2014-01-09 21:52:00,29.1,13.7,29.82,West,270,7.0,11.0,52,0.00,,---,0.00,VWS V14.01,2014-01-10 04:52:00,
2014-01-09 22:02:00,28.9,13.9,29.82,West,265,8.0,12.0,53,0.00,,---,0.00,VWS V14.01,2014-01-10 05:02:00,
2014-01-09 22:07:00,28.3,14.2,29.83,West,265,6.0,9.0,55,0.00,,---,0.00,VWS V14.01,2014-01-10 05:07:00,
2014-01-09 22:12:00,27.9,13.8,29.83,West,261,6.0,9.0,55,0.00,,---,0.00,VWS V14.01,2014-01-10 05:12:00,
2014-01-09 22:17:00,28.7,13.8,29.83,West,259,6.0,8.0,53,0.00,,---,0.00,VWS V14.01,2014-01-10 05:17:00,
2014-01-09 22:22:00,29.8,13.4,29.82,West,259,4.0,6.0,50,0.00,,---,0.00,VWS V14.01,2014-01-10 05:22:00,
2014-01-09 22:27:00,30.2,12.9,29.82,West,259,6.0,7.0,48,0.00,,---,0.00,VWS V14.01,2014-01-10 05:27:00,
2014-01-09 22:32:00,30.5,12.7,29.81,West,259,3.0,6.0,47,0.00,,---,0.00,VWS V14.01,2014-01-10 05:32:00,
2014-01-09 22:37:00,30.5,12.7,29.81,West,259,4.0,5.0,47,0.00,,---,0.00,VWS V14.01,2014-01-10 05:37:00,
2014-01-09 22:47:00,30.2,12.9,29.80,West,259,1.0,6.0,48,0.00,,---,0.00,VWS V14.01,2014-01-10 05:47:00,
2014-01-09 22:52:00,30.7,12.9,29.80,West,259,3.0,3.0,47,0.00,,---,0.00,VWS V14.01,2014-01-10 05:52:00,
2014-01-09 23:02:00,29.5,12.7,29.80,West,269,4.0,11.0,49,0.00,,---,0.00,VWS V14.01,2014-01-10 06:02:00,
2014-01-09 23:07:00,28.8,12.5,29.80,West,269,6.0,6.0,50,0.00,,---,0.00,VWS V14.01,2014-01-10 06:07:00,
2014-01-09 23:17:00,28.4,13.9,29.79,WNW,301,5.0,10.0,54,0.00,,---,0.00,VWS V14.01,2014-01-10 06:17:00,
2014-01-09 23:27:00,27.9,13.4,29.79,NW,304,0.0,5.0,54,0.00,,---,0.00,VWS V14.01,2014-01-10 06:27:00,
2014-01-09 23:32:00,27.6,13.6,29.79,NW,304,1.0,1.0,55,0.00,,---,0.00,VWS V14.01,2014-01-10 06:32:00,
2014-01-09 23:42:00,27.4,13.4,29.78,NW,304,0.0,0.0,55,0.00,,---,0.00,VWS V14.01,2014-01-10 06:42:00,
2014-01-09 23:52:00,27.0,13.4,29.77,NW,304,2.0,3.0,56,0.00,,---,0.00,VWS V14.01,2014-01-10 06:52:00,
2014-01-09 23:57:00,27.2,13.6,29.76,NW,304,0.0,3.0,56,0.00,,---,0.00,VWS V14.01,2014-01-10 06:57:00,